<?xml version="1.0" encoding="UTF-8" standalone="no" ?>
<gpx xmlns="http://www.topografix.com/GPX/1/1" xmlns:xsi="http://www.w3.org/2001/XMLSchema-instance" xsi:schemaLocation="http://www.topografix.com/GPX/1/1 http://www.topografix.com/GPX/1/1/gpx.xsd" version="1.1" creator="VisuGPX - https://www.visugpx.com">
  <metadata>
    <name>Ballade VNT 36km 7-2-21</name>
    <desc><![CDATA[Départ Volvic destination Puy de Dome]]></desc>
  </metadata>
  <trk>
    <name><![CDATA[10134445-Ultra Volcanique 2021 (80 km)]]></name>
    <trkseg>
      <trkpt lat="45.87341" lon="3.03262">
        <ele>578</ele>
        <time>2020-12-21T21:58:40Z</time>
      </trkpt>
      <trkpt lat="45.87494" lon="3.0314">
        <ele>585</ele>
        <time>2020-12-21T22:00:07Z</time>
      </trkpt>
      <trkpt lat="45.87519" lon="3.03081">
        <ele>586</ele>
        <time>2020-12-21T22:00:31Z</time>
      </trkpt>
      <trkpt lat="45.87525" lon="3.03012">
        <ele>588</ele>
        <time>2020-12-21T22:00:55Z</time>
      </trkpt>
      <trkpt lat="45.87508" lon="3.02904">
        <ele>589</ele>
        <time>2020-12-21T22:01:34Z</time>
      </trkpt>
      <trkpt lat="45.87448" lon="3.02756">
        <ele>593</ele>
        <time>2020-12-21T22:02:34Z</time>
      </trkpt>
      <trkpt lat="45.87454" lon="3.02718">
        <ele>595</ele>
        <time>2020-12-21T22:02:47Z</time>
      </trkpt>
      <trkpt lat="45.87469" lon="3.02704">
        <ele>596</ele>
        <time>2020-12-21T22:02:56Z</time>
      </trkpt>
      <trkpt lat="45.87493" lon="3.02705">
        <ele>598</ele>
        <time>2020-12-21T22:03:08Z</time>
      </trkpt>
      <trkpt lat="45.87539" lon="3.02689">
        <ele>600</ele>
        <time>2020-12-21T22:03:32Z</time>
      </trkpt>
      <trkpt lat="45.8759" lon="3.02596">
        <ele>601</ele>
        <time>2020-12-21T22:04:13Z</time>
      </trkpt>
      <trkpt lat="45.87613" lon="3.02518">
        <ele>606</ele>
        <time>2020-12-21T22:04:43Z</time>
      </trkpt>
      <trkpt lat="45.87619" lon="3.02309">
        <ele>609</ele>
        <time>2020-12-21T22:05:56Z</time>
      </trkpt>
      <trkpt lat="45.87669" lon="3.02237">
        <ele>608</ele>
        <time>2020-12-21T22:06:31Z</time>
      </trkpt>
      <trkpt lat="45.87746" lon="3.02196">
        <ele>612</ele>
        <time>2020-12-21T22:07:12Z</time>
      </trkpt>
      <trkpt lat="45.87773" lon="3.02154">
        <ele>610</ele>
        <time>2020-12-21T22:07:32Z</time>
      </trkpt>
      <trkpt lat="45.87784" lon="3.02111">
        <ele>611</ele>
        <time>2020-12-21T22:07:48Z</time>
      </trkpt>
      <trkpt lat="45.87781" lon="3.0206">
        <ele>614</ele>
        <time>2020-12-21T22:08:06Z</time>
      </trkpt>
      <trkpt lat="45.87746" lon="3.01992">
        <ele>621</ele>
        <time>2020-12-21T22:08:35Z</time>
      </trkpt>
      <trkpt lat="45.87686" lon="3.01909">
        <ele>621</ele>
        <time>2020-12-21T22:09:17Z</time>
      </trkpt>
      <trkpt lat="45.87685" lon="3.01863">
        <ele>625</ele>
        <time>2020-12-21T22:09:33Z</time>
      </trkpt>
      <trkpt lat="45.87707" lon="3.01773">
        <ele>641</ele>
        <time>2020-12-21T22:10:06Z</time>
      </trkpt>
      <trkpt lat="45.87731" lon="3.01703">
        <ele>644</ele>
        <time>2020-12-21T22:10:33Z</time>
      </trkpt>
      <trkpt lat="45.87758" lon="3.01683">
        <ele>646</ele>
        <time>2020-12-21T22:10:49Z</time>
      </trkpt>
      <trkpt lat="45.87798" lon="3.01604">
        <ele>653</ele>
        <time>2020-12-21T22:11:23Z</time>
      </trkpt>
      <trkpt lat="45.8783" lon="3.01593">
        <ele>659</ele>
        <time>2020-12-21T22:11:39Z</time>
      </trkpt>
      <trkpt lat="45.87907" lon="3.01619">
        <ele>669</ele>
        <time>2020-12-21T22:12:19Z</time>
      </trkpt>
      <trkpt lat="45.87965" lon="3.01623">
        <ele>672</ele>
        <time>2020-12-21T22:12:48Z</time>
      </trkpt>
      <trkpt lat="45.87979" lon="3.01608">
        <ele>675</ele>
        <time>2020-12-21T22:12:56Z</time>
      </trkpt>
      <trkpt lat="45.87973" lon="3.01581">
        <ele>678</ele>
        <time>2020-12-21T22:13:06Z</time>
      </trkpt>
      <trkpt lat="45.8793" lon="3.01527">
        <ele>679</ele>
        <time>2020-12-21T22:13:35Z</time>
      </trkpt>
      <trkpt lat="45.87919" lon="3.01368">
        <ele>697</ele>
        <time>2020-12-21T22:14:31Z</time>
      </trkpt>
      <trkpt lat="45.87949" lon="3.01263">
        <ele>707</ele>
        <time>2020-12-21T22:15:10Z</time>
      </trkpt>
      <trkpt lat="45.87918" lon="3.0122">
        <ele>708</ele>
        <time>2020-12-21T22:15:32Z</time>
      </trkpt>
      <trkpt lat="45.87877" lon="3.01231">
        <ele>705</ele>
        <time>2020-12-21T22:15:53Z</time>
      </trkpt>
      <trkpt lat="45.87844" lon="3.01204">
        <ele>705</ele>
        <time>2020-12-21T22:16:12Z</time>
      </trkpt>
      <trkpt lat="45.8781" lon="3.01166">
        <ele>703</ele>
        <time>2020-12-21T22:16:33Z</time>
      </trkpt>
      <trkpt lat="45.87781" lon="3.01114">
        <ele>701</ele>
        <time>2020-12-21T22:16:56Z</time>
      </trkpt>
      <trkpt lat="45.87677" lon="3.00976">
        <ele>698</ele>
        <time>2020-12-21T22:18:07Z</time>
      </trkpt>
      <trkpt lat="45.87606" lon="3.00999">
        <ele>698</ele>
        <time>2020-12-21T22:18:44Z</time>
      </trkpt>
      <trkpt lat="45.8751" lon="3.01014">
        <ele>694</ele>
        <time>2020-12-21T22:19:32Z</time>
      </trkpt>
      <trkpt lat="45.87476" lon="3.01071">
        <ele>689</ele>
        <time>2020-12-21T22:19:58Z</time>
      </trkpt>
      <trkpt lat="45.87445" lon="3.01143">
        <ele>690</ele>
        <time>2020-12-21T22:20:28Z</time>
      </trkpt>
      <trkpt lat="45.87431" lon="3.01154">
        <ele>690</ele>
        <time>2020-12-21T22:20:36Z</time>
      </trkpt>
      <trkpt lat="45.87417" lon="3.01154">
        <ele>690</ele>
        <time>2020-12-21T22:20:43Z</time>
      </trkpt>
      <trkpt lat="45.87406" lon="3.0114">
        <ele>688</ele>
        <time>2020-12-21T22:20:50Z</time>
      </trkpt>
      <trkpt lat="45.87399" lon="3.01081">
        <ele>686</ele>
        <time>2020-12-21T22:21:11Z</time>
      </trkpt>
      <trkpt lat="45.87405" lon="3.01046">
        <ele>685</ele>
        <time>2020-12-21T22:21:23Z</time>
      </trkpt>
      <trkpt lat="45.87428" lon="3.01028">
        <ele>686</ele>
        <time>2020-12-21T22:21:36Z</time>
      </trkpt>
      <trkpt lat="45.87424" lon="3.00923">
        <ele>688</ele>
        <time>2020-12-21T22:22:13Z</time>
      </trkpt>
      <trkpt lat="45.87432" lon="3.00827">
        <ele>693</ele>
        <time>2020-12-21T22:22:47Z</time>
      </trkpt>
      <trkpt lat="45.8742" lon="3.00751">
        <ele>694</ele>
        <time>2020-12-21T22:23:14Z</time>
      </trkpt>
      <trkpt lat="45.8742" lon="3.00624">
        <ele>701</ele>
        <time>2020-12-21T22:23:58Z</time>
      </trkpt>
      <trkpt lat="45.87451" lon="3.00549">
        <ele>706</ele>
        <time>2020-12-21T22:24:29Z</time>
      </trkpt>
      <trkpt lat="45.87499" lon="3.00501">
        <ele>705</ele>
        <time>2020-12-21T22:24:58Z</time>
      </trkpt>
      <trkpt lat="45.87521" lon="3.00349">
        <ele>709</ele>
        <time>2020-12-21T22:25:52Z</time>
      </trkpt>
      <trkpt lat="45.87519" lon="3.0026">
        <ele>716</ele>
        <time>2020-12-21T22:26:23Z</time>
      </trkpt>
      <trkpt lat="45.87534" lon="3.00222">
        <ele>717</ele>
        <time>2020-12-21T22:26:38Z</time>
      </trkpt>
      <trkpt lat="45.87526" lon="3.00107">
        <ele>725</ele>
        <time>2020-12-21T22:27:18Z</time>
      </trkpt>
      <trkpt lat="45.87509" lon="3.0005">
        <ele>729</ele>
        <time>2020-12-21T22:27:40Z</time>
      </trkpt>
      <trkpt lat="45.87486" lon="3.00022">
        <ele>731</ele>
        <time>2020-12-21T22:27:55Z</time>
      </trkpt>
      <trkpt lat="45.87485" lon="2.99954">
        <ele>736</ele>
        <time>2020-12-21T22:28:19Z</time>
      </trkpt>
      <trkpt lat="45.87503" lon="2.99933">
        <ele>737</ele>
        <time>2020-12-21T22:28:30Z</time>
      </trkpt>
      <trkpt lat="45.87559" lon="2.99958">
        <ele>738</ele>
        <time>2020-12-21T22:29:00Z</time>
      </trkpt>
      <trkpt lat="45.87532" lon="2.99887">
        <ele>742</ele>
        <time>2020-12-21T22:29:28Z</time>
      </trkpt>
      <trkpt lat="45.87552" lon="2.99874">
        <ele>744</ele>
        <time>2020-12-21T22:29:39Z</time>
      </trkpt>
      <trkpt lat="45.87574" lon="2.99825">
        <ele>747</ele>
        <time>2020-12-21T22:29:59Z</time>
      </trkpt>
      <trkpt lat="45.87591" lon="2.9976">
        <ele>749</ele>
        <time>2020-12-21T22:30:23Z</time>
      </trkpt>
      <trkpt lat="45.87608" lon="2.99729">
        <ele>750</ele>
        <time>2020-12-21T22:30:37Z</time>
      </trkpt>
      <trkpt lat="45.87606" lon="2.99635">
        <ele>754</ele>
        <time>2020-12-21T22:31:10Z</time>
      </trkpt>
      <trkpt lat="45.8765" lon="2.992">
        <ele>762</ele>
        <time>2020-12-21T22:33:43Z</time>
      </trkpt>
      <trkpt lat="45.87662" lon="2.99133">
        <ele>761</ele>
        <time>2020-12-21T22:34:07Z</time>
      </trkpt>
      <trkpt lat="45.87539" lon="2.98948">
        <ele>769</ele>
        <time>2020-12-21T22:35:36Z</time>
      </trkpt>
      <trkpt lat="45.87498" lon="2.98943">
        <ele>772</ele>
        <time>2020-12-21T22:35:57Z</time>
      </trkpt>
      <trkpt lat="45.87463" lon="2.98958">
        <ele>774</ele>
        <time>2020-12-21T22:36:15Z</time>
      </trkpt>
      <trkpt lat="45.87486" lon="2.98906">
        <ele>771</ele>
        <time>2020-12-21T22:36:37Z</time>
      </trkpt>
      <trkpt lat="45.875" lon="2.98837">
        <ele>769</ele>
        <time>2020-12-21T22:37:02Z</time>
      </trkpt>
      <trkpt lat="45.87518" lon="2.98789">
        <ele>769</ele>
        <time>2020-12-21T22:37:21Z</time>
      </trkpt>
      <trkpt lat="45.87525" lon="2.98736">
        <ele>769</ele>
        <time>2020-12-21T22:37:39Z</time>
      </trkpt>
      <trkpt lat="45.87522" lon="2.98679">
        <ele>769</ele>
        <time>2020-12-21T22:37:59Z</time>
      </trkpt>
      <trkpt lat="45.87555" lon="2.98614">
        <ele>768</ele>
        <time>2020-12-21T22:38:27Z</time>
      </trkpt>
      <trkpt lat="45.8759" lon="2.98534">
        <ele>772</ele>
        <time>2020-12-21T22:39:00Z</time>
      </trkpt>
      <trkpt lat="45.87625" lon="2.98404">
        <ele>785</ele>
        <time>2020-12-21T22:39:49Z</time>
      </trkpt>
      <trkpt lat="45.87634" lon="2.98384">
        <ele>785</ele>
        <time>2020-12-21T22:39:57Z</time>
      </trkpt>
      <trkpt lat="45.87663" lon="2.98204">
        <ele>795</ele>
        <time>2020-12-21T22:41:02Z</time>
      </trkpt>
      <trkpt lat="45.87672" lon="2.98095">
        <ele>795</ele>
        <time>2020-12-21T22:41:40Z</time>
      </trkpt>
      <trkpt lat="45.87613" lon="2.98093">
        <ele>800</ele>
        <time>2020-12-21T22:42:09Z</time>
      </trkpt>
      <trkpt lat="45.87597" lon="2.98095">
        <ele>801</ele>
        <time>2020-12-21T22:42:17Z</time>
      </trkpt>
      <trkpt lat="45.87578" lon="2.9809">
        <ele>803</ele>
        <time>2020-12-21T22:42:27Z</time>
      </trkpt>
      <trkpt lat="45.87565" lon="2.98121">
        <ele>805</ele>
        <time>2020-12-21T22:42:40Z</time>
      </trkpt>
      <trkpt lat="45.87567" lon="2.98144">
        <ele>805</ele>
        <time>2020-12-21T22:42:48Z</time>
      </trkpt>
      <trkpt lat="45.87552" lon="2.98185">
        <ele>806</ele>
        <time>2020-12-21T22:43:04Z</time>
      </trkpt>
      <trkpt lat="45.8751" lon="2.98251">
        <ele>806</ele>
        <time>2020-12-21T22:43:35Z</time>
      </trkpt>
      <trkpt lat="45.87427" lon="2.98322">
        <ele>803</ele>
        <time>2020-12-21T22:44:23Z</time>
      </trkpt>
      <trkpt lat="45.87356" lon="2.98393">
        <ele>799</ele>
        <time>2020-12-21T22:45:07Z</time>
      </trkpt>
      <trkpt lat="45.87306" lon="2.98511">
        <ele>793</ele>
        <time>2020-12-21T22:45:55Z</time>
      </trkpt>
      <trkpt lat="45.8729" lon="2.98567">
        <ele>793</ele>
        <time>2020-12-21T22:46:16Z</time>
      </trkpt>
      <trkpt lat="45.87247" lon="2.98507">
        <ele>796</ele>
        <time>2020-12-21T22:46:46Z</time>
      </trkpt>
      <trkpt lat="45.87172" lon="2.98489">
        <ele>802</ele>
        <time>2020-12-21T22:47:24Z</time>
      </trkpt>
      <trkpt lat="45.86974" lon="2.98363">
        <ele>813</ele>
        <time>2020-12-21T22:49:12Z</time>
      </trkpt>
      <trkpt lat="45.86922" lon="2.98373">
        <ele>814</ele>
        <time>2020-12-21T22:49:39Z</time>
      </trkpt>
      <trkpt lat="45.869" lon="2.98367">
        <ele>815</ele>
        <time>2020-12-21T22:49:50Z</time>
      </trkpt>
      <trkpt lat="45.86883" lon="2.98353">
        <ele>815</ele>
        <time>2020-12-21T22:50:00Z</time>
      </trkpt>
      <trkpt lat="45.86857" lon="2.98319">
        <ele>816</ele>
        <time>2020-12-21T22:50:17Z</time>
      </trkpt>
      <trkpt lat="45.86811" lon="2.98348">
        <ele>820</ele>
        <time>2020-12-21T22:50:42Z</time>
      </trkpt>
      <trkpt lat="45.86775" lon="2.98408">
        <ele>824</ele>
        <time>2020-12-21T22:51:10Z</time>
      </trkpt>
      <trkpt lat="45.86748" lon="2.98468">
        <ele>825</ele>
        <time>2020-12-21T22:51:35Z</time>
      </trkpt>
      <trkpt lat="45.86739" lon="2.98496">
        <ele>826</ele>
        <time>2020-12-21T22:51:46Z</time>
      </trkpt>
      <trkpt lat="45.86669" lon="2.98582">
        <ele>839</ele>
        <time>2020-12-21T22:52:32Z</time>
      </trkpt>
      <trkpt lat="45.86616" lon="2.98667">
        <ele>852</ele>
        <time>2020-12-21T22:53:11Z</time>
      </trkpt>
      <trkpt lat="45.86531" lon="2.98648">
        <ele>868</ele>
        <time>2020-12-21T22:53:54Z</time>
      </trkpt>
      <trkpt lat="45.86451" lon="2.98624">
        <ele>881</ele>
        <time>2020-12-21T22:54:35Z</time>
      </trkpt>
      <trkpt lat="45.86407" lon="2.98643">
        <ele>885</ele>
        <time>2020-12-21T22:54:58Z</time>
      </trkpt>
      <trkpt lat="45.86373" lon="2.98674">
        <ele>888</ele>
        <time>2020-12-21T22:55:18Z</time>
      </trkpt>
      <trkpt lat="45.86357" lon="2.98697">
        <ele>890</ele>
        <time>2020-12-21T22:55:30Z</time>
      </trkpt>
      <trkpt lat="45.86337" lon="2.98717">
        <ele>893</ele>
        <time>2020-12-21T22:55:42Z</time>
      </trkpt>
      <trkpt lat="45.8629" lon="2.98739">
        <ele>911</ele>
        <time>2020-12-21T22:56:07Z</time>
      </trkpt>
      <trkpt lat="45.86263" lon="2.98688">
        <ele>925</ele>
        <time>2020-12-21T22:56:29Z</time>
      </trkpt>
      <trkpt lat="45.86254" lon="2.98656">
        <ele>931</ele>
        <time>2020-12-21T22:56:41Z</time>
      </trkpt>
      <trkpt lat="45.86232" lon="2.98653">
        <ele>935</ele>
        <time>2020-12-21T22:56:52Z</time>
      </trkpt>
      <trkpt lat="45.86242" lon="2.9874">
        <ele>930</ele>
        <time>2020-12-21T22:57:23Z</time>
      </trkpt>
      <trkpt lat="45.86226" lon="2.98779">
        <ele>928</ele>
        <time>2020-12-21T22:57:39Z</time>
      </trkpt>
      <trkpt lat="45.86181" lon="2.98805">
        <ele>931</ele>
        <time>2020-12-21T22:58:03Z</time>
      </trkpt>
      <trkpt lat="45.86143" lon="2.98808">
        <ele>933</ele>
        <time>2020-12-21T22:58:22Z</time>
      </trkpt>
      <trkpt lat="45.86113" lon="2.98848">
        <ele>927</ele>
        <time>2020-12-21T22:58:42Z</time>
      </trkpt>
      <trkpt lat="45.86073" lon="2.98952">
        <ele>910</ele>
        <time>2020-12-21T22:59:24Z</time>
      </trkpt>
      <trkpt lat="45.86055" lon="2.98992">
        <ele>907</ele>
        <time>2020-12-21T22:59:40Z</time>
      </trkpt>
      <trkpt lat="45.86041" lon="2.99035">
        <ele>903</ele>
        <time>2020-12-21T22:59:57Z</time>
      </trkpt>
      <trkpt lat="45.86023" lon="2.99078">
        <ele>900</ele>
        <time>2020-12-21T23:00:14Z</time>
      </trkpt>
      <trkpt lat="45.86005" lon="2.99106">
        <ele>899</ele>
        <time>2020-12-21T23:00:28Z</time>
      </trkpt>
      <trkpt lat="45.85987" lon="2.9912">
        <ele>896</ele>
        <time>2020-12-21T23:00:38Z</time>
      </trkpt>
      <trkpt lat="45.85962" lon="2.99124">
        <ele>892</ele>
        <time>2020-12-21T23:00:51Z</time>
      </trkpt>
      <trkpt lat="45.85944" lon="2.9916">
        <ele>884</ele>
        <time>2020-12-21T23:01:06Z</time>
      </trkpt>
      <trkpt lat="45.85948" lon="2.99188">
        <ele>881</ele>
        <time>2020-12-21T23:01:16Z</time>
      </trkpt>
      <trkpt lat="45.8594" lon="2.99221">
        <ele>875</ele>
        <time>2020-12-21T23:01:28Z</time>
      </trkpt>
      <trkpt lat="45.85921" lon="2.99361">
        <ele>854</ele>
        <time>2020-12-21T23:02:18Z</time>
      </trkpt>
      <trkpt lat="45.85913" lon="2.99376">
        <ele>850</ele>
        <time>2020-12-21T23:02:24Z</time>
      </trkpt>
      <trkpt lat="45.8589" lon="2.9938">
        <ele>844</ele>
        <time>2020-12-21T23:02:36Z</time>
      </trkpt>
      <trkpt lat="45.85844" lon="2.99374">
        <ele>835</ele>
        <time>2020-12-21T23:02:59Z</time>
      </trkpt>
      <trkpt lat="45.85798" lon="2.99405">
        <ele>826</ele>
        <time>2020-12-21T23:03:25Z</time>
      </trkpt>
      <trkpt lat="45.85752" lon="2.99448">
        <ele>819</ele>
        <time>2020-12-21T23:03:52Z</time>
      </trkpt>
      <trkpt lat="45.8572" lon="2.99472">
        <ele>815</ele>
        <time>2020-12-21T23:04:10Z</time>
      </trkpt>
      <trkpt lat="45.85668" lon="2.99541">
        <ele>809</ele>
        <time>2020-12-21T23:04:46Z</time>
      </trkpt>
      <trkpt lat="45.85652" lon="2.99571">
        <ele>806</ele>
        <time>2020-12-21T23:04:59Z</time>
      </trkpt>
      <trkpt lat="45.8563" lon="2.99603">
        <ele>804</ele>
        <time>2020-12-21T23:05:14Z</time>
      </trkpt>
      <trkpt lat="45.85607" lon="2.99616">
        <ele>803</ele>
        <time>2020-12-21T23:05:27Z</time>
      </trkpt>
      <trkpt lat="45.85583" lon="2.99618">
        <ele>804</ele>
        <time>2020-12-21T23:05:39Z</time>
      </trkpt>
      <trkpt lat="45.85546" lon="2.99535">
        <ele>810</ele>
        <time>2020-12-21T23:06:13Z</time>
      </trkpt>
      <trkpt lat="45.85542" lon="2.99502">
        <ele>812</ele>
        <time>2020-12-21T23:06:25Z</time>
      </trkpt>
      <trkpt lat="45.8556" lon="2.99354">
        <ele>813</ele>
        <time>2020-12-21T23:07:17Z</time>
      </trkpt>
      <trkpt lat="45.85576" lon="2.99179">
        <ele>820</ele>
        <time>2020-12-21T23:08:19Z</time>
      </trkpt>
      <trkpt lat="45.85548" lon="2.99064">
        <ele>825</ele>
        <time>2020-12-21T23:09:01Z</time>
      </trkpt>
      <trkpt lat="45.85536" lon="2.98966">
        <ele>830</ele>
        <time>2020-12-21T23:09:36Z</time>
      </trkpt>
      <trkpt lat="45.85521" lon="2.98889">
        <ele>833</ele>
        <time>2020-12-21T23:10:04Z</time>
      </trkpt>
      <trkpt lat="45.85502" lon="2.98829">
        <ele>832</ele>
        <time>2020-12-21T23:10:27Z</time>
      </trkpt>
      <trkpt lat="45.85445" lon="2.98694">
        <ele>841</ele>
        <time>2020-12-21T23:11:22Z</time>
      </trkpt>
      <trkpt lat="45.85391" lon="2.98637">
        <ele>845</ele>
        <time>2020-12-21T23:11:55Z</time>
      </trkpt>
      <trkpt lat="45.85361" lon="2.98643">
        <ele>846</ele>
        <time>2020-12-21T23:12:10Z</time>
      </trkpt>
      <trkpt lat="45.85345" lon="2.98651">
        <ele>846</ele>
        <time>2020-12-21T23:12:19Z</time>
      </trkpt>
      <trkpt lat="45.85325" lon="2.98651">
        <ele>847</ele>
        <time>2020-12-21T23:12:29Z</time>
      </trkpt>
      <trkpt lat="45.85307" lon="2.98648">
        <ele>847</ele>
        <time>2020-12-21T23:12:38Z</time>
      </trkpt>
      <trkpt lat="45.85266" lon="2.98562">
        <ele>849</ele>
        <time>2020-12-21T23:13:14Z</time>
      </trkpt>
      <trkpt lat="45.85225" lon="2.9853">
        <ele>851</ele>
        <time>2020-12-21T23:13:38Z</time>
      </trkpt>
      <trkpt lat="45.85205" lon="2.98477">
        <ele>852</ele>
        <time>2020-12-21T23:13:59Z</time>
      </trkpt>
      <trkpt lat="45.85194" lon="2.98398">
        <ele>854</ele>
        <time>2020-12-21T23:14:27Z</time>
      </trkpt>
      <trkpt lat="45.85161" lon="2.98316">
        <ele>856</ele>
        <time>2020-12-21T23:15:00Z</time>
      </trkpt>
      <trkpt lat="45.85114" lon="2.98233">
        <ele>864</ele>
        <time>2020-12-21T23:15:37Z</time>
      </trkpt>
      <trkpt lat="45.85101" lon="2.98191">
        <ele>865</ele>
        <time>2020-12-21T23:15:53Z</time>
      </trkpt>
      <trkpt lat="45.85054" lon="2.98145">
        <ele>868</ele>
        <time>2020-12-21T23:16:22Z</time>
      </trkpt>
      <trkpt lat="45.85045" lon="2.98111">
        <ele>871</ele>
        <time>2020-12-21T23:16:34Z</time>
      </trkpt>
      <trkpt lat="45.8507" lon="2.98022">
        <ele>876</ele>
        <time>2020-12-21T23:17:08Z</time>
      </trkpt>
      <trkpt lat="45.85114" lon="2.97941">
        <ele>882</ele>
        <time>2020-12-21T23:17:43Z</time>
      </trkpt>
      <trkpt lat="45.85124" lon="2.97908">
        <ele>885</ele>
        <time>2020-12-21T23:17:56Z</time>
      </trkpt>
      <trkpt lat="45.85119" lon="2.97878">
        <ele>886</ele>
        <time>2020-12-21T23:18:07Z</time>
      </trkpt>
      <trkpt lat="45.851" lon="2.97836">
        <ele>884</ele>
        <time>2020-12-21T23:18:24Z</time>
      </trkpt>
      <trkpt lat="45.85055" lon="2.97808">
        <ele>884</ele>
        <time>2020-12-21T23:18:49Z</time>
      </trkpt>
      <trkpt lat="45.84996" lon="2.97815">
        <ele>885</ele>
        <time>2020-12-21T23:19:18Z</time>
      </trkpt>
      <trkpt lat="45.84921" lon="2.97884">
        <ele>884</ele>
        <time>2020-12-21T23:20:03Z</time>
      </trkpt>
      <trkpt lat="45.84849" lon="2.9787">
        <ele>889</ele>
        <time>2020-12-21T23:20:39Z</time>
      </trkpt>
      <trkpt lat="45.84803" lon="2.97888">
        <ele>887</ele>
        <time>2020-12-21T23:21:03Z</time>
      </trkpt>
      <trkpt lat="45.8476" lon="2.97879">
        <ele>889</ele>
        <time>2020-12-21T23:21:25Z</time>
      </trkpt>
      <trkpt lat="45.84731" lon="2.97862">
        <ele>890</ele>
        <time>2020-12-21T23:21:41Z</time>
      </trkpt>
      <trkpt lat="45.84716" lon="2.9783">
        <ele>894</ele>
        <time>2020-12-21T23:21:54Z</time>
      </trkpt>
      <trkpt lat="45.84767" lon="2.97813">
        <ele>898</ele>
        <time>2020-12-21T23:22:20Z</time>
      </trkpt>
      <trkpt lat="45.84818" lon="2.97724">
        <ele>907</ele>
        <time>2020-12-21T23:23:00Z</time>
      </trkpt>
      <trkpt lat="45.84744" lon="2.97609">
        <ele>925</ele>
        <time>2020-12-21T23:23:55Z</time>
      </trkpt>
      <trkpt lat="45.84743" lon="2.97548">
        <ele>937</ele>
        <time>2020-12-21T23:24:16Z</time>
      </trkpt>
      <trkpt lat="45.8475" lon="2.97503">
        <ele>947</ele>
        <time>2020-12-21T23:24:32Z</time>
      </trkpt>
      <trkpt lat="45.84784" lon="2.97473">
        <ele>956</ele>
        <time>2020-12-21T23:24:52Z</time>
      </trkpt>
      <trkpt lat="45.8482" lon="2.97471">
        <ele>956</ele>
        <time>2020-12-21T23:25:10Z</time>
      </trkpt>
      <trkpt lat="45.84852" lon="2.97426">
        <ele>969</ele>
        <time>2020-12-21T23:25:33Z</time>
      </trkpt>
      <trkpt lat="45.84896" lon="2.97398">
        <ele>978</ele>
        <time>2020-12-21T23:25:57Z</time>
      </trkpt>
      <trkpt lat="45.8497" lon="2.97381">
        <ele>984</ele>
        <time>2020-12-21T23:26:34Z</time>
      </trkpt>
      <trkpt lat="45.85039" lon="2.97357">
        <ele>988</ele>
        <time>2020-12-21T23:27:10Z</time>
      </trkpt>
      <trkpt lat="45.85062" lon="2.9737">
        <ele>983</ele>
        <time>2020-12-21T23:27:22Z</time>
      </trkpt>
      <trkpt lat="45.85086" lon="2.97338">
        <ele>990</ele>
        <time>2020-12-21T23:27:39Z</time>
      </trkpt>
      <trkpt lat="45.8512" lon="2.97284">
        <ele>998</ele>
        <time>2020-12-21T23:28:04Z</time>
      </trkpt>
      <trkpt lat="45.85151" lon="2.97241">
        <ele>1002</ele>
        <time>2020-12-21T23:28:26Z</time>
      </trkpt>
      <trkpt lat="45.85159" lon="2.97223">
        <ele>1003</ele>
        <time>2020-12-21T23:28:33Z</time>
      </trkpt>
      <trkpt lat="45.85188" lon="2.97188">
        <ele>1004</ele>
        <time>2020-12-21T23:28:52Z</time>
      </trkpt>
      <trkpt lat="45.85209" lon="2.9714">
        <ele>1006</ele>
        <time>2020-12-21T23:29:12Z</time>
      </trkpt>
      <trkpt lat="45.85221" lon="2.97081">
        <ele>1007</ele>
        <time>2020-12-21T23:29:33Z</time>
      </trkpt>
      <trkpt lat="45.8524" lon="2.97029">
        <ele>1009</ele>
        <time>2020-12-21T23:29:54Z</time>
      </trkpt>
      <trkpt lat="45.8525" lon="2.96916">
        <ele>1015</ele>
        <time>2020-12-21T23:30:33Z</time>
      </trkpt>
      <trkpt lat="45.85244" lon="2.96836">
        <ele>1018</ele>
        <time>2020-12-21T23:31:01Z</time>
      </trkpt>
      <trkpt lat="45.85272" lon="2.96736">
        <ele>1017</ele>
        <time>2020-12-21T23:31:39Z</time>
      </trkpt>
      <trkpt lat="45.85287" lon="2.96693">
        <ele>1017</ele>
        <time>2020-12-21T23:31:56Z</time>
      </trkpt>
      <trkpt lat="45.85295" lon="2.96646">
        <ele>1017</ele>
        <time>2020-12-21T23:32:13Z</time>
      </trkpt>
      <trkpt lat="45.85268" lon="2.96609">
        <ele>1022</ele>
        <time>2020-12-21T23:32:31Z</time>
      </trkpt>
      <trkpt lat="45.85209" lon="2.96456">
        <ele>1037</ele>
        <time>2020-12-21T23:33:32Z</time>
      </trkpt>
      <trkpt lat="45.85168" lon="2.96404">
        <ele>1037</ele>
        <time>2020-12-21T23:34:00Z</time>
      </trkpt>
      <trkpt lat="45.85145" lon="2.96458">
        <ele>1044</ele>
        <time>2020-12-21T23:34:22Z</time>
      </trkpt>
      <trkpt lat="45.85124" lon="2.96517">
        <ele>1054</ele>
        <time>2020-12-21T23:34:45Z</time>
      </trkpt>
      <trkpt lat="45.8512" lon="2.96558">
        <ele>1058</ele>
        <time>2020-12-21T23:34:59Z</time>
      </trkpt>
      <trkpt lat="45.85093" lon="2.96604">
        <ele>1068</ele>
        <time>2020-12-21T23:35:20Z</time>
      </trkpt>
      <trkpt lat="45.85066" lon="2.96628">
        <ele>1077</ele>
        <time>2020-12-21T23:35:36Z</time>
      </trkpt>
      <trkpt lat="45.85049" lon="2.96657">
        <ele>1082</ele>
        <time>2020-12-21T23:35:49Z</time>
      </trkpt>
      <trkpt lat="45.85025" lon="2.96691">
        <ele>1088</ele>
        <time>2020-12-21T23:36:06Z</time>
      </trkpt>
      <trkpt lat="45.84987" lon="2.96707">
        <ele>1099</ele>
        <time>2020-12-21T23:36:26Z</time>
      </trkpt>
      <trkpt lat="45.84919" lon="2.96751">
        <ele>1114</ele>
        <time>2020-12-21T23:37:03Z</time>
      </trkpt>
      <trkpt lat="45.84899" lon="2.96803">
        <ele>1118</ele>
        <time>2020-12-21T23:37:24Z</time>
      </trkpt>
      <trkpt lat="45.84872" lon="2.96844">
        <ele>1125</ele>
        <time>2020-12-21T23:37:44Z</time>
      </trkpt>
      <trkpt lat="45.84844" lon="2.96867">
        <ele>1131</ele>
        <time>2020-12-21T23:38:00Z</time>
      </trkpt>
      <trkpt lat="45.8483" lon="2.96884">
        <ele>1135</ele>
        <time>2020-12-21T23:38:09Z</time>
      </trkpt>
      <trkpt lat="45.84813" lon="2.96887">
        <ele>1136</ele>
        <time>2020-12-21T23:38:17Z</time>
      </trkpt>
      <trkpt lat="45.84775" lon="2.96871">
        <ele>1138</ele>
        <time>2020-12-21T23:38:37Z</time>
      </trkpt>
      <trkpt lat="45.84703" lon="2.96809">
        <ele>1138</ele>
        <time>2020-12-21T23:39:19Z</time>
      </trkpt>
      <trkpt lat="45.84661" lon="2.96667">
        <ele>1149</ele>
        <time>2020-12-21T23:40:13Z</time>
      </trkpt>
      <trkpt lat="45.84642" lon="2.96664">
        <ele>1146</ele>
        <time>2020-12-21T23:40:23Z</time>
      </trkpt>
      <trkpt lat="45.84606" lon="2.96637">
        <ele>1139</ele>
        <time>2020-12-21T23:40:43Z</time>
      </trkpt>
      <trkpt lat="45.84593" lon="2.96605">
        <ele>1136</ele>
        <time>2020-12-21T23:40:56Z</time>
      </trkpt>
      <trkpt lat="45.84581" lon="2.96583">
        <ele>1134</ele>
        <time>2020-12-21T23:41:06Z</time>
      </trkpt>
      <trkpt lat="45.84541" lon="2.96557">
        <ele>1128</ele>
        <time>2020-12-21T23:41:28Z</time>
      </trkpt>
      <trkpt lat="45.84526" lon="2.96516">
        <ele>1124</ele>
        <time>2020-12-21T23:41:44Z</time>
      </trkpt>
      <trkpt lat="45.84488" lon="2.96517">
        <ele>1127</ele>
        <time>2020-12-21T23:42:03Z</time>
      </trkpt>
      <trkpt lat="45.84468" lon="2.96478">
        <ele>1128</ele>
        <time>2020-12-21T23:42:20Z</time>
      </trkpt>
      <trkpt lat="45.84434" lon="2.96435">
        <ele>1130</ele>
        <time>2020-12-21T23:42:42Z</time>
      </trkpt>
      <trkpt lat="45.84393" lon="2.96459">
        <ele>1135</ele>
        <time>2020-12-21T23:43:05Z</time>
      </trkpt>
      <trkpt lat="45.84393" lon="2.96492">
        <ele>1139</ele>
        <time>2020-12-21T23:43:16Z</time>
      </trkpt>
      <trkpt lat="45.84376" lon="2.96512">
        <ele>1138</ele>
        <time>2020-12-21T23:43:27Z</time>
      </trkpt>
      <trkpt lat="45.84346" lon="2.96515">
        <ele>1137</ele>
        <time>2020-12-21T23:43:42Z</time>
      </trkpt>
      <trkpt lat="45.84297" lon="2.96487">
        <ele>1133</ele>
        <time>2020-12-21T23:44:08Z</time>
      </trkpt>
      <trkpt lat="45.8424" lon="2.96428">
        <ele>1134</ele>
        <time>2020-12-21T23:44:44Z</time>
      </trkpt>
      <trkpt lat="45.84188" lon="2.96357">
        <ele>1137</ele>
        <time>2020-12-21T23:45:20Z</time>
      </trkpt>
      <trkpt lat="45.84131" lon="2.96318">
        <ele>1129</ele>
        <time>2020-12-21T23:45:51Z</time>
      </trkpt>
      <trkpt lat="45.84073" lon="2.96259">
        <ele>1111</ele>
        <time>2020-12-21T23:46:27Z</time>
      </trkpt>
      <trkpt lat="45.84002" lon="2.96221">
        <ele>1097</ele>
        <time>2020-12-21T23:47:05Z</time>
      </trkpt>
      <trkpt lat="45.83946" lon="2.96203">
        <ele>1089</ele>
        <time>2020-12-21T23:47:33Z</time>
      </trkpt>
      <trkpt lat="45.83909" lon="2.96219">
        <ele>1086</ele>
        <time>2020-12-21T23:47:53Z</time>
      </trkpt>
      <trkpt lat="45.8384" lon="2.96227">
        <ele>1076</ele>
        <time>2020-12-21T23:48:27Z</time>
      </trkpt>
      <trkpt lat="45.83783" lon="2.96221">
        <ele>1063</ele>
        <time>2020-12-21T23:48:56Z</time>
      </trkpt>
      <trkpt lat="45.83744" lon="2.96201">
        <ele>1053</ele>
        <time>2020-12-21T23:49:17Z</time>
      </trkpt>
      <trkpt lat="45.83724" lon="2.96019">
        <ele>1037</ele>
        <time>2020-12-21T23:50:21Z</time>
      </trkpt>
      <trkpt lat="45.83668" lon="2.95964">
        <ele>1030</ele>
        <time>2020-12-21T23:50:55Z</time>
      </trkpt>
      <trkpt lat="45.83663" lon="2.95939">
        <ele>1029</ele>
        <time>2020-12-21T23:51:04Z</time>
      </trkpt>
      <trkpt lat="45.83553" lon="2.95873">
        <ele>1041</ele>
        <time>2020-12-21T23:52:04Z</time>
      </trkpt>
      <trkpt lat="45.83684" lon="2.956">
        <ele>1034</ele>
        <time>2020-12-21T23:53:59Z</time>
      </trkpt>
      <trkpt lat="45.83659" lon="2.95549">
        <ele>1034</ele>
        <time>2020-12-21T23:54:21Z</time>
      </trkpt>
      <trkpt lat="45.83429" lon="2.95429">
        <ele>1033</ele>
        <time>2020-12-21T23:56:23Z</time>
      </trkpt>
      <trkpt lat="45.83411" lon="2.95395">
        <ele>1028</ele>
        <time>2020-12-21T23:56:38Z</time>
      </trkpt>
      <trkpt lat="45.83174" lon="2.95426">
        <ele>1026</ele>
        <time>2020-12-21T23:58:37Z</time>
      </trkpt>
      <trkpt lat="45.83115" lon="2.95521">
        <ele>1035</ele>
        <time>2020-12-21T23:59:22Z</time>
      </trkpt>
      <trkpt lat="45.83103" lon="2.95437">
        <ele>1032</ele>
        <time>2020-12-21T23:59:52Z</time>
      </trkpt>
      <trkpt lat="45.8309" lon="2.95383">
        <ele>1030</ele>
        <time>2020-12-22T00:00:12Z</time>
      </trkpt>
      <trkpt lat="45.83074" lon="2.95389">
        <ele>1034</ele>
        <time>2020-12-22T00:00:20Z</time>
      </trkpt>
      <trkpt lat="45.83057" lon="2.95382">
        <ele>1039</ele>
        <time>2020-12-22T00:00:29Z</time>
      </trkpt>
      <trkpt lat="45.83046" lon="2.95372">
        <ele>1042</ele>
        <time>2020-12-22T00:00:35Z</time>
      </trkpt>
      <trkpt lat="45.83031" lon="2.9534">
        <ele>1042</ele>
        <time>2020-12-22T00:00:49Z</time>
      </trkpt>
      <trkpt lat="45.82966" lon="2.95253">
        <ele>1045</ele>
        <time>2020-12-22T00:01:33Z</time>
      </trkpt>
      <trkpt lat="45.82943" lon="2.9524">
        <ele>1048</ele>
        <time>2020-12-22T00:01:45Z</time>
      </trkpt>
      <trkpt lat="45.82911" lon="2.95211">
        <ele>1051</ele>
        <time>2020-12-22T00:02:04Z</time>
      </trkpt>
      <trkpt lat="45.82877" lon="2.95198">
        <ele>1055</ele>
        <time>2020-12-22T00:02:22Z</time>
      </trkpt>
      <trkpt lat="45.82774" lon="2.95198">
        <ele>1069</ele>
        <time>2020-12-22T00:03:14Z</time>
      </trkpt>
      <trkpt lat="45.82733" lon="2.95218">
        <ele>1074</ele>
        <time>2020-12-22T00:03:35Z</time>
      </trkpt>
      <trkpt lat="45.82688" lon="2.95231">
        <ele>1077</ele>
        <time>2020-12-22T00:03:58Z</time>
      </trkpt>
      <trkpt lat="45.82676" lon="2.95223">
        <ele>1078</ele>
        <time>2020-12-22T00:04:05Z</time>
      </trkpt>
      <trkpt lat="45.8266" lon="2.95217">
        <ele>1080</ele>
        <time>2020-12-22T00:04:13Z</time>
      </trkpt>
      <trkpt lat="45.82611" lon="2.95186">
        <ele>1087</ele>
        <time>2020-12-22T00:04:40Z</time>
      </trkpt>
      <trkpt lat="45.8259" lon="2.95172">
        <ele>1089</ele>
        <time>2020-12-22T00:04:51Z</time>
      </trkpt>
      <trkpt lat="45.82571" lon="2.95155">
        <ele>1090</ele>
        <time>2020-12-22T00:05:03Z</time>
      </trkpt>
      <trkpt lat="45.82547" lon="2.95154">
        <ele>1091</ele>
        <time>2020-12-22T00:05:15Z</time>
      </trkpt>
      <trkpt lat="45.82528" lon="2.95134">
        <ele>1092</ele>
        <time>2020-12-22T00:05:26Z</time>
      </trkpt>
      <trkpt lat="45.82478" lon="2.95131">
        <ele>1094</ele>
        <time>2020-12-22T00:05:52Z</time>
      </trkpt>
      <trkpt lat="45.82466" lon="2.95101">
        <ele>1096</ele>
        <time>2020-12-22T00:06:04Z</time>
      </trkpt>
      <trkpt lat="45.82444" lon="2.95091">
        <ele>1098</ele>
        <time>2020-12-22T00:06:15Z</time>
      </trkpt>
      <trkpt lat="45.82424" lon="2.95087">
        <ele>1099</ele>
        <time>2020-12-22T00:06:25Z</time>
      </trkpt>
      <trkpt lat="45.82418" lon="2.95062">
        <ele>1099</ele>
        <time>2020-12-22T00:06:34Z</time>
      </trkpt>
      <trkpt lat="45.82432" lon="2.95026">
        <ele>1096</ele>
        <time>2020-12-22T00:06:49Z</time>
      </trkpt>
      <trkpt lat="45.82403" lon="2.95027">
        <ele>1094</ele>
        <time>2020-12-22T00:07:03Z</time>
      </trkpt>
      <trkpt lat="45.82383" lon="2.95031">
        <ele>1090</ele>
        <time>2020-12-22T00:07:13Z</time>
      </trkpt>
      <trkpt lat="45.82374" lon="2.95078">
        <ele>1091</ele>
        <time>2020-12-22T00:07:30Z</time>
      </trkpt>
      <trkpt lat="45.82374" lon="2.95117">
        <ele>1094</ele>
        <time>2020-12-22T00:07:44Z</time>
      </trkpt>
      <trkpt lat="45.82383" lon="2.95152">
        <ele>1097</ele>
        <time>2020-12-22T00:07:57Z</time>
      </trkpt>
      <trkpt lat="45.82383" lon="2.95203">
        <ele>1099</ele>
        <time>2020-12-22T00:08:15Z</time>
      </trkpt>
      <trkpt lat="45.82391" lon="2.95253">
        <ele>1103</ele>
        <time>2020-12-22T00:08:33Z</time>
      </trkpt>
      <trkpt lat="45.82406" lon="2.95305">
        <ele>1108</ele>
        <time>2020-12-22T00:08:52Z</time>
      </trkpt>
      <trkpt lat="45.82466" lon="2.95394">
        <ele>1114</ele>
        <time>2020-12-22T00:09:36Z</time>
      </trkpt>
      <trkpt lat="45.82471" lon="2.95453">
        <ele>1111</ele>
        <time>2020-12-22T00:09:56Z</time>
      </trkpt>
      <trkpt lat="45.82489" lon="2.95567">
        <ele>1104</ele>
        <time>2020-12-22T00:10:37Z</time>
      </trkpt>
      <trkpt lat="45.82491" lon="2.95608">
        <ele>1098</ele>
        <time>2020-12-22T00:10:51Z</time>
      </trkpt>
      <trkpt lat="45.82508" lon="2.95662">
        <ele>1090</ele>
        <time>2020-12-22T00:11:12Z</time>
      </trkpt>
      <trkpt lat="45.82522" lon="2.95756">
        <ele>1071</ele>
        <time>2020-12-22T00:11:46Z</time>
      </trkpt>
      <trkpt lat="45.82515" lon="2.95809">
        <ele>1060</ele>
        <time>2020-12-22T00:12:04Z</time>
      </trkpt>
      <trkpt lat="45.82502" lon="2.95846">
        <ele>1052</ele>
        <time>2020-12-22T00:12:19Z</time>
      </trkpt>
      <trkpt lat="45.82483" lon="2.9593">
        <ele>1032</ele>
        <time>2020-12-22T00:12:50Z</time>
      </trkpt>
      <trkpt lat="45.82461" lon="2.95971">
        <ele>1022</ele>
        <time>2020-12-22T00:13:08Z</time>
      </trkpt>
      <trkpt lat="45.82454" lon="2.95999">
        <ele>1018</ele>
        <time>2020-12-22T00:13:18Z</time>
      </trkpt>
      <trkpt lat="45.82384" lon="2.96058">
        <ele>998</ele>
        <time>2020-12-22T00:13:59Z</time>
      </trkpt>
      <trkpt lat="45.82381" lon="2.96084">
        <ele>993</ele>
        <time>2020-12-22T00:14:08Z</time>
      </trkpt>
      <trkpt lat="45.82407" lon="2.96122">
        <ele>992</ele>
        <time>2020-12-22T00:14:26Z</time>
      </trkpt>
      <trkpt lat="45.82443" lon="2.96132">
        <ele>994</ele>
        <time>2020-12-22T00:14:45Z</time>
      </trkpt>
      <trkpt lat="45.82473" lon="2.96185">
        <ele>987</ele>
        <time>2020-12-22T00:15:09Z</time>
      </trkpt>
      <trkpt lat="45.82476" lon="2.96227">
        <ele>980</ele>
        <time>2020-12-22T00:15:23Z</time>
      </trkpt>
      <trkpt lat="45.82472" lon="2.96256">
        <ele>977</ele>
        <time>2020-12-22T00:15:34Z</time>
      </trkpt>
      <trkpt lat="45.82475" lon="2.96291">
        <ele>978</ele>
        <time>2020-12-22T00:15:46Z</time>
      </trkpt>
      <trkpt lat="45.8245" lon="2.96314">
        <ele>980</ele>
        <time>2020-12-22T00:16:01Z</time>
      </trkpt>
      <trkpt lat="45.82418" lon="2.96316">
        <ele>981</ele>
        <time>2020-12-22T00:16:17Z</time>
      </trkpt>
      <trkpt lat="45.82371" lon="2.96313">
        <ele>980</ele>
        <time>2020-12-22T00:16:40Z</time>
      </trkpt>
      <trkpt lat="45.82319" lon="2.96321">
        <ele>979</ele>
        <time>2020-12-22T00:17:07Z</time>
      </trkpt>
      <trkpt lat="45.82291" lon="2.96322">
        <ele>977</ele>
        <time>2020-12-22T00:17:21Z</time>
      </trkpt>
      <trkpt lat="45.82264" lon="2.96296">
        <ele>976</ele>
        <time>2020-12-22T00:17:37Z</time>
      </trkpt>
      <trkpt lat="45.82159" lon="2.96275">
        <ele>972</ele>
        <time>2020-12-22T00:18:30Z</time>
      </trkpt>
      <trkpt lat="45.82062" lon="2.96252">
        <ele>968</ele>
        <time>2020-12-22T00:19:19Z</time>
      </trkpt>
      <trkpt lat="45.82022" lon="2.96229">
        <ele>965</ele>
        <time>2020-12-22T00:19:41Z</time>
      </trkpt>
      <trkpt lat="45.81998" lon="2.96218">
        <ele>963</ele>
        <time>2020-12-22T00:19:53Z</time>
      </trkpt>
      <trkpt lat="45.81929" lon="2.96167">
        <ele>964</ele>
        <time>2020-12-22T00:20:32Z</time>
      </trkpt>
      <trkpt lat="45.81825" lon="2.96082">
        <ele>962</ele>
        <time>2020-12-22T00:21:32Z</time>
      </trkpt>
      <trkpt lat="45.81758" lon="2.96023">
        <ele>956</ele>
        <time>2020-12-22T00:22:11Z</time>
      </trkpt>
      <trkpt lat="45.81427" lon="2.95814">
        <ele>957</ele>
        <time>2020-12-22T00:25:12Z</time>
      </trkpt>
      <trkpt lat="45.81425" lon="2.95767">
        <ele>956</ele>
        <time>2020-12-22T00:25:29Z</time>
      </trkpt>
      <trkpt lat="45.81416" lon="2.95744">
        <ele>956</ele>
        <time>2020-12-22T00:25:38Z</time>
      </trkpt>
      <trkpt lat="45.81418" lon="2.95654">
        <ele>956</ele>
        <time>2020-12-22T00:26:09Z</time>
      </trkpt>
      <trkpt lat="45.81408" lon="2.95564">
        <ele>956</ele>
        <time>2020-12-22T00:26:41Z</time>
      </trkpt>
      <trkpt lat="45.81412" lon="2.95531">
        <ele>955</ele>
        <time>2020-12-22T00:26:53Z</time>
      </trkpt>
      <trkpt lat="45.81447" lon="2.95415">
        <ele>952</ele>
        <time>2020-12-22T00:27:37Z</time>
      </trkpt>
      <trkpt lat="45.8146" lon="2.95359">
        <ele>954</ele>
        <time>2020-12-22T00:27:57Z</time>
      </trkpt>
      <trkpt lat="45.81475" lon="2.95336">
        <ele>954</ele>
        <time>2020-12-22T00:28:08Z</time>
      </trkpt>
      <trkpt lat="45.81599" lon="2.95247">
        <ele>958</ele>
        <time>2020-12-22T00:29:18Z</time>
      </trkpt>
      <trkpt lat="45.81691" lon="2.9515">
        <ele>961</ele>
        <time>2020-12-22T00:30:15Z</time>
      </trkpt>
      <trkpt lat="45.81658" lon="2.95057">
        <ele>964</ele>
        <time>2020-12-22T00:30:51Z</time>
      </trkpt>
      <trkpt lat="45.81641" lon="2.9503">
        <ele>966</ele>
        <time>2020-12-22T00:31:04Z</time>
      </trkpt>
      <trkpt lat="45.81617" lon="2.94983">
        <ele>968</ele>
        <time>2020-12-22T00:31:24Z</time>
      </trkpt>
      <trkpt lat="45.81624" lon="2.94936">
        <ele>970</ele>
        <time>2020-12-22T00:31:41Z</time>
      </trkpt>
      <trkpt lat="45.81626" lon="2.94862">
        <ele>969</ele>
        <time>2020-12-22T00:32:07Z</time>
      </trkpt>
      <trkpt lat="45.81599" lon="2.94705">
        <ele>966</ele>
        <time>2020-12-22T00:33:03Z</time>
      </trkpt>
      <trkpt lat="45.8161" lon="2.9471">
        <ele>966</ele>
        <time>2020-12-22T00:33:09Z</time>
      </trkpt>
      <trkpt lat="45.81618" lon="2.94689">
        <ele>966</ele>
        <time>2020-12-22T00:33:17Z</time>
      </trkpt>
      <trkpt lat="45.81625" lon="2.94656">
        <ele>966</ele>
        <time>2020-12-22T00:33:30Z</time>
      </trkpt>
      <trkpt lat="45.81574" lon="2.94633">
        <ele>966</ele>
        <time>2020-12-22T00:33:56Z</time>
      </trkpt>
      <trkpt lat="45.81579" lon="2.94674">
        <ele>966</ele>
        <time>2020-12-22T00:34:11Z</time>
      </trkpt>
      <trkpt lat="45.81606" lon="2.94764">
        <ele>966</ele>
        <time>2020-12-22T00:34:45Z</time>
      </trkpt>
      <trkpt lat="45.81626" lon="2.94892">
        <ele>970</ele>
        <time>2020-12-22T00:35:31Z</time>
      </trkpt>
      <trkpt lat="45.81609" lon="2.94908">
        <ele>970</ele>
        <time>2020-12-22T00:35:41Z</time>
      </trkpt>
      <trkpt lat="45.81594" lon="2.94918">
        <ele>969</ele>
        <time>2020-12-22T00:35:49Z</time>
      </trkpt>
      <trkpt lat="45.8158" lon="2.94938">
        <ele>968</ele>
        <time>2020-12-22T00:35:59Z</time>
      </trkpt>
      <trkpt lat="45.81559" lon="2.94987">
        <ele>966</ele>
        <time>2020-12-22T00:36:19Z</time>
      </trkpt>
      <trkpt lat="45.81543" lon="2.94996">
        <ele>964</ele>
        <time>2020-12-22T00:36:28Z</time>
      </trkpt>
      <trkpt lat="45.81512" lon="2.94986">
        <ele>962</ele>
        <time>2020-12-22T00:36:44Z</time>
      </trkpt>
      <trkpt lat="45.81484" lon="2.95079">
        <ele>959</ele>
        <time>2020-12-22T00:37:19Z</time>
      </trkpt>
      <trkpt lat="45.81443" lon="2.95184">
        <ele>961</ele>
        <time>2020-12-22T00:38:01Z</time>
      </trkpt>
      <trkpt lat="45.81433" lon="2.95238">
        <ele>960</ele>
        <time>2020-12-22T00:38:20Z</time>
      </trkpt>
      <trkpt lat="45.8144" lon="2.95284">
        <ele>959</ele>
        <time>2020-12-22T00:38:37Z</time>
      </trkpt>
      <trkpt lat="45.81439" lon="2.95322">
        <ele>957</ele>
        <time>2020-12-22T00:38:50Z</time>
      </trkpt>
      <trkpt lat="45.81408" lon="2.95311">
        <ele>959</ele>
        <time>2020-12-22T00:39:06Z</time>
      </trkpt>
      <trkpt lat="45.81396" lon="2.95277">
        <ele>960</ele>
        <time>2020-12-22T00:39:19Z</time>
      </trkpt>
      <trkpt lat="45.81382" lon="2.95255">
        <ele>961</ele>
        <time>2020-12-22T00:39:30Z</time>
      </trkpt>
      <trkpt lat="45.81354" lon="2.95253">
        <ele>962</ele>
        <time>2020-12-22T00:39:44Z</time>
      </trkpt>
      <trkpt lat="45.81335" lon="2.95241">
        <ele>961</ele>
        <time>2020-12-22T00:39:54Z</time>
      </trkpt>
      <trkpt lat="45.81317" lon="2.95213">
        <ele>960</ele>
        <time>2020-12-22T00:40:07Z</time>
      </trkpt>
      <trkpt lat="45.8129" lon="2.95183">
        <ele>960</ele>
        <time>2020-12-22T00:40:25Z</time>
      </trkpt>
      <trkpt lat="45.81253" lon="2.95112">
        <ele>960</ele>
        <time>2020-12-22T00:40:55Z</time>
      </trkpt>
      <trkpt lat="45.81223" lon="2.95078">
        <ele>961</ele>
        <time>2020-12-22T00:41:15Z</time>
      </trkpt>
      <trkpt lat="45.812" lon="2.95037">
        <ele>960</ele>
        <time>2020-12-22T00:41:33Z</time>
      </trkpt>
      <trkpt lat="45.81139" lon="2.94915">
        <ele>953</ele>
        <time>2020-12-22T00:42:25Z</time>
      </trkpt>
      <trkpt lat="45.81076" lon="2.94807">
        <ele>950</ele>
        <time>2020-12-22T00:43:14Z</time>
      </trkpt>
      <trkpt lat="45.80973" lon="2.94686">
        <ele>946</ele>
        <time>2020-12-22T00:44:21Z</time>
      </trkpt>
      <trkpt lat="45.8087" lon="2.94573">
        <ele>941</ele>
        <time>2020-12-22T00:45:26Z</time>
      </trkpt>
      <trkpt lat="45.80766" lon="2.94454">
        <ele>939</ele>
        <time>2020-12-22T00:46:33Z</time>
      </trkpt>
      <trkpt lat="45.80575" lon="2.94205">
        <ele>930</ele>
        <time>2020-12-22T00:48:42Z</time>
      </trkpt>
      <trkpt lat="45.80542" lon="2.94135">
        <ele>929</ele>
        <time>2020-12-22T00:49:11Z</time>
      </trkpt>
      <trkpt lat="45.80474" lon="2.94329">
        <ele>941</ele>
        <time>2020-12-22T00:50:27Z</time>
      </trkpt>
      <trkpt lat="45.80423" lon="2.94435">
        <ele>945</ele>
        <time>2020-12-22T00:51:12Z</time>
      </trkpt>
      <trkpt lat="45.80382" lon="2.94496">
        <ele>953</ele>
        <time>2020-12-22T00:51:41Z</time>
      </trkpt>
      <trkpt lat="45.80314" lon="2.94703">
        <ele>963</ele>
        <time>2020-12-22T00:53:01Z</time>
      </trkpt>
      <trkpt lat="45.8026" lon="2.94771">
        <ele>971</ele>
        <time>2020-12-22T00:53:37Z</time>
      </trkpt>
      <trkpt lat="45.80193" lon="2.94815">
        <ele>986</ele>
        <time>2020-12-22T00:54:14Z</time>
      </trkpt>
      <trkpt lat="45.80131" lon="2.94865">
        <ele>995</ele>
        <time>2020-12-22T00:54:50Z</time>
      </trkpt>
      <trkpt lat="45.8007" lon="2.94905">
        <ele>1002</ele>
        <time>2020-12-22T00:55:23Z</time>
      </trkpt>
      <trkpt lat="45.80029" lon="2.94927">
        <ele>1007</ele>
        <time>2020-12-22T00:55:45Z</time>
      </trkpt>
      <trkpt lat="45.79962" lon="2.94952">
        <ele>1015</ele>
        <time>2020-12-22T00:56:20Z</time>
      </trkpt>
      <trkpt lat="45.79901" lon="2.94985">
        <ele>1018</ele>
        <time>2020-12-22T00:56:52Z</time>
      </trkpt>
      <trkpt lat="45.79883" lon="2.9499">
        <ele>1019</ele>
        <time>2020-12-22T00:57:02Z</time>
      </trkpt>
      <trkpt lat="45.79846" lon="2.94989">
        <ele>1021</ele>
        <time>2020-12-22T00:57:20Z</time>
      </trkpt>
      <trkpt lat="45.79824" lon="2.95021">
        <ele>1017</ele>
        <time>2020-12-22T00:57:36Z</time>
      </trkpt>
      <trkpt lat="45.79806" lon="2.95026">
        <ele>1016</ele>
        <time>2020-12-22T00:57:45Z</time>
      </trkpt>
      <trkpt lat="45.79793" lon="2.95016">
        <ele>1018</ele>
        <time>2020-12-22T00:57:52Z</time>
      </trkpt>
      <trkpt lat="45.79661" lon="2.95046">
        <ele>1014</ele>
        <time>2020-12-22T00:58:59Z</time>
      </trkpt>
      <trkpt lat="45.79609" lon="2.95055">
        <ele>1015</ele>
        <time>2020-12-22T00:59:25Z</time>
      </trkpt>
      <trkpt lat="45.79601" lon="2.95075">
        <ele>1014</ele>
        <time>2020-12-22T00:59:33Z</time>
      </trkpt>
      <trkpt lat="45.79577" lon="2.95057">
        <ele>1017</ele>
        <time>2020-12-22T00:59:47Z</time>
      </trkpt>
      <trkpt lat="45.79514" lon="2.94956">
        <ele>1024</ele>
        <time>2020-12-22T01:00:34Z</time>
      </trkpt>
      <trkpt lat="45.79509" lon="2.94917">
        <ele>1024</ele>
        <time>2020-12-22T01:00:48Z</time>
      </trkpt>
      <trkpt lat="45.79483" lon="2.94891">
        <ele>1029</ele>
        <time>2020-12-22T01:01:04Z</time>
      </trkpt>
      <trkpt lat="45.79328" lon="2.94687">
        <ele>1033</ele>
        <time>2020-12-22T01:02:49Z</time>
      </trkpt>
      <trkpt lat="45.79281" lon="2.94604">
        <ele>1037</ele>
        <time>2020-12-22T01:03:27Z</time>
      </trkpt>
      <trkpt lat="45.79266" lon="2.94569">
        <ele>1036</ele>
        <time>2020-12-22T01:03:41Z</time>
      </trkpt>
      <trkpt lat="45.79259" lon="2.94546">
        <ele>1035</ele>
        <time>2020-12-22T01:03:50Z</time>
      </trkpt>
      <trkpt lat="45.79227" lon="2.94521">
        <ele>1035</ele>
        <time>2020-12-22T01:04:08Z</time>
      </trkpt>
      <trkpt lat="45.79176" lon="2.94467">
        <ele>1036</ele>
        <time>2020-12-22T01:04:40Z</time>
      </trkpt>
      <trkpt lat="45.79137" lon="2.94437">
        <ele>1038</ele>
        <time>2020-12-22T01:05:02Z</time>
      </trkpt>
      <trkpt lat="45.79082" lon="2.9443">
        <ele>1042</ele>
        <time>2020-12-22T01:05:29Z</time>
      </trkpt>
      <trkpt lat="45.79024" lon="2.94413">
        <ele>1046</ele>
        <time>2020-12-22T01:05:59Z</time>
      </trkpt>
      <trkpt lat="45.78894" lon="2.94401">
        <ele>1051</ele>
        <time>2020-12-22T01:07:04Z</time>
      </trkpt>
      <trkpt lat="45.78831" lon="2.94425">
        <ele>1046</ele>
        <time>2020-12-22T01:07:37Z</time>
      </trkpt>
      <trkpt lat="45.78805" lon="2.94444">
        <ele>1044</ele>
        <time>2020-12-22T01:07:51Z</time>
      </trkpt>
      <trkpt lat="45.78783" lon="2.94449">
        <ele>1043</ele>
        <time>2020-12-22T01:08:03Z</time>
      </trkpt>
      <trkpt lat="45.78764" lon="2.94452">
        <ele>1042</ele>
        <time>2020-12-22T01:08:12Z</time>
      </trkpt>
      <trkpt lat="45.78709" lon="2.9444">
        <ele>1040</ele>
        <time>2020-12-22T01:08:40Z</time>
      </trkpt>
      <trkpt lat="45.7864" lon="2.9453">
        <ele>1042</ele>
        <time>2020-12-22T01:09:27Z</time>
      </trkpt>
      <trkpt lat="45.78619" lon="2.9459">
        <ele>1045</ele>
        <time>2020-12-22T01:09:50Z</time>
      </trkpt>
      <trkpt lat="45.78603" lon="2.94656">
        <ele>1047</ele>
        <time>2020-12-22T01:10:14Z</time>
      </trkpt>
      <trkpt lat="45.78612" lon="2.94712">
        <ele>1048</ele>
        <time>2020-12-22T01:10:35Z</time>
      </trkpt>
      <trkpt lat="45.78621" lon="2.948">
        <ele>1050</ele>
        <time>2020-12-22T01:11:06Z</time>
      </trkpt>
      <trkpt lat="45.78633" lon="2.94842">
        <ele>1052</ele>
        <time>2020-12-22T01:11:21Z</time>
      </trkpt>
      <trkpt lat="45.78648" lon="2.94928">
        <ele>1056</ele>
        <time>2020-12-22T01:11:52Z</time>
      </trkpt>
      <trkpt lat="45.78658" lon="2.94951">
        <ele>1058</ele>
        <time>2020-12-22T01:12:02Z</time>
      </trkpt>
      <trkpt lat="45.78639" lon="2.95021">
        <ele>1063</ele>
        <time>2020-12-22T01:12:28Z</time>
      </trkpt>
      <trkpt lat="45.78637" lon="2.95095">
        <ele>1069</ele>
        <time>2020-12-22T01:12:54Z</time>
      </trkpt>
      <trkpt lat="45.7863" lon="2.9513">
        <ele>1071</ele>
        <time>2020-12-22T01:13:07Z</time>
      </trkpt>
      <trkpt lat="45.78626" lon="2.95185">
        <ele>1074</ele>
        <time>2020-12-22T01:13:26Z</time>
      </trkpt>
      <trkpt lat="45.78609" lon="2.95317">
        <ele>1072</ele>
        <time>2020-12-22T01:14:13Z</time>
      </trkpt>
      <trkpt lat="45.78607" lon="2.95411">
        <ele>1071</ele>
        <time>2020-12-22T01:14:46Z</time>
      </trkpt>
      <trkpt lat="45.78601" lon="2.95492">
        <ele>1070</ele>
        <time>2020-12-22T01:15:14Z</time>
      </trkpt>
      <trkpt lat="45.78582" lon="2.95633">
        <ele>1067</ele>
        <time>2020-12-22T01:16:04Z</time>
      </trkpt>
      <trkpt lat="45.78582" lon="2.95755">
        <ele>1071</ele>
        <time>2020-12-22T01:16:47Z</time>
      </trkpt>
      <trkpt lat="45.78587" lon="2.95847">
        <ele>1074</ele>
        <time>2020-12-22T01:17:19Z</time>
      </trkpt>
      <trkpt lat="45.78593" lon="2.95902">
        <ele>1077</ele>
        <time>2020-12-22T01:17:38Z</time>
      </trkpt>
      <trkpt lat="45.78624" lon="2.95993">
        <ele>1086</ele>
        <time>2020-12-22T01:18:14Z</time>
      </trkpt>
      <trkpt lat="45.78613" lon="2.96025">
        <ele>1087</ele>
        <time>2020-12-22T01:18:26Z</time>
      </trkpt>
      <trkpt lat="45.78587" lon="2.96063">
        <ele>1088</ele>
        <time>2020-12-22T01:18:45Z</time>
      </trkpt>
      <trkpt lat="45.78564" lon="2.96087">
        <ele>1089</ele>
        <time>2020-12-22T01:18:59Z</time>
      </trkpt>
      <trkpt lat="45.78553" lon="2.96106">
        <ele>1091</ele>
        <time>2020-12-22T01:19:07Z</time>
      </trkpt>
      <trkpt lat="45.7851" lon="2.96152">
        <ele>1096</ele>
        <time>2020-12-22T01:19:34Z</time>
      </trkpt>
      <trkpt lat="45.78507" lon="2.9617">
        <ele>1098</ele>
        <time>2020-12-22T01:19:41Z</time>
      </trkpt>
      <trkpt lat="45.78497" lon="2.9619">
        <ele>1101</ele>
        <time>2020-12-22T01:19:49Z</time>
      </trkpt>
      <trkpt lat="45.78472" lon="2.96203">
        <ele>1103</ele>
        <time>2020-12-22T01:20:03Z</time>
      </trkpt>
      <trkpt lat="45.7845" lon="2.96201">
        <ele>1102</ele>
        <time>2020-12-22T01:20:14Z</time>
      </trkpt>
      <trkpt lat="45.78414" lon="2.96238">
        <ele>1107</ele>
        <time>2020-12-22T01:20:36Z</time>
      </trkpt>
      <trkpt lat="45.78387" lon="2.96299">
        <ele>1113</ele>
        <time>2020-12-22T01:21:01Z</time>
      </trkpt>
      <trkpt lat="45.78372" lon="2.96411">
        <ele>1123</ele>
        <time>2020-12-22T01:21:41Z</time>
      </trkpt>
      <trkpt lat="45.78386" lon="2.96504">
        <ele>1125</ele>
        <time>2020-12-22T01:22:14Z</time>
      </trkpt>
      <trkpt lat="45.78388" lon="2.96557">
        <ele>1125</ele>
        <time>2020-12-22T01:22:33Z</time>
      </trkpt>
      <trkpt lat="45.78424" lon="2.96694">
        <ele>1124</ele>
        <time>2020-12-22T01:23:24Z</time>
      </trkpt>
      <trkpt lat="45.78441" lon="2.96794">
        <ele>1122</ele>
        <time>2020-12-22T01:24:00Z</time>
      </trkpt>
      <trkpt lat="45.78462" lon="2.96842">
        <ele>1122</ele>
        <time>2020-12-22T01:24:19Z</time>
      </trkpt>
      <trkpt lat="45.7849" lon="2.96886">
        <ele>1120</ele>
        <time>2020-12-22T01:24:40Z</time>
      </trkpt>
      <trkpt lat="45.78517" lon="2.96974">
        <ele>1112</ele>
        <time>2020-12-22T01:25:14Z</time>
      </trkpt>
      <trkpt lat="45.78526" lon="2.97028">
        <ele>1105</ele>
        <time>2020-12-22T01:25:33Z</time>
      </trkpt>
      <trkpt lat="45.78509" lon="2.97109">
        <ele>1097</ele>
        <time>2020-12-22T01:26:03Z</time>
      </trkpt>
      <trkpt lat="45.78491" lon="2.97151">
        <ele>1095</ele>
        <time>2020-12-22T01:26:20Z</time>
      </trkpt>
      <trkpt lat="45.78488" lon="2.97173">
        <ele>1094</ele>
        <time>2020-12-22T01:26:28Z</time>
      </trkpt>
      <trkpt lat="45.78501" lon="2.97194">
        <ele>1090</ele>
        <time>2020-12-22T01:26:37Z</time>
      </trkpt>
      <trkpt lat="45.78519" lon="2.97211">
        <ele>1087</ele>
        <time>2020-12-22T01:26:48Z</time>
      </trkpt>
      <trkpt lat="45.78544" lon="2.97215">
        <ele>1083</ele>
        <time>2020-12-22T01:27:01Z</time>
      </trkpt>
      <trkpt lat="45.78583" lon="2.97228">
        <ele>1077</ele>
        <time>2020-12-22T01:27:21Z</time>
      </trkpt>
      <trkpt lat="45.78598" lon="2.97239">
        <ele>1074</ele>
        <time>2020-12-22T01:27:29Z</time>
      </trkpt>
      <trkpt lat="45.78578" lon="2.97287">
        <ele>1069</ele>
        <time>2020-12-22T01:27:49Z</time>
      </trkpt>
      <trkpt lat="45.78535" lon="2.9736">
        <ele>1062</ele>
        <time>2020-12-22T01:28:22Z</time>
      </trkpt>
      <trkpt lat="45.78406" lon="2.9764">
        <ele>1030</ele>
        <time>2020-12-22T01:30:19Z</time>
      </trkpt>
      <trkpt lat="45.78356" lon="2.97737">
        <ele>1018</ele>
        <time>2020-12-22T01:31:01Z</time>
      </trkpt>
      <trkpt lat="45.78336" lon="2.97769">
        <ele>1013</ele>
        <time>2020-12-22T01:31:16Z</time>
      </trkpt>
      <trkpt lat="45.78259" lon="2.9783">
        <ele>1002</ele>
        <time>2020-12-22T01:32:00Z</time>
      </trkpt>
      <trkpt lat="45.78202" lon="2.97889">
        <ele>990</ele>
        <time>2020-12-22T01:32:36Z</time>
      </trkpt>
      <trkpt lat="45.78158" lon="2.97913">
        <ele>984</ele>
        <time>2020-12-22T01:32:59Z</time>
      </trkpt>
      <trkpt lat="45.7816" lon="2.9798">
        <ele>977</ele>
        <time>2020-12-22T01:33:23Z</time>
      </trkpt>
      <trkpt lat="45.78172" lon="2.98114">
        <ele>963</ele>
        <time>2020-12-22T01:34:10Z</time>
      </trkpt>
      <trkpt lat="45.78168" lon="2.98186">
        <ele>955</ele>
        <time>2020-12-22T01:34:35Z</time>
      </trkpt>
      <trkpt lat="45.78153" lon="2.98255">
        <ele>950</ele>
        <time>2020-12-22T01:35:00Z</time>
      </trkpt>
      <trkpt lat="45.78141" lon="2.98365">
        <ele>941</ele>
        <time>2020-12-22T01:35:39Z</time>
      </trkpt>
      <trkpt lat="45.78135" lon="2.98544">
        <ele>930</ele>
        <time>2020-12-22T01:36:42Z</time>
      </trkpt>
      <trkpt lat="45.78121" lon="2.98586">
        <ele>929</ele>
        <time>2020-12-22T01:36:58Z</time>
      </trkpt>
      <trkpt lat="45.78085" lon="2.98594">
        <ele>930</ele>
        <time>2020-12-22T01:37:16Z</time>
      </trkpt>
      <trkpt lat="45.78053" lon="2.98593">
        <ele>929</ele>
        <time>2020-12-22T01:37:32Z</time>
      </trkpt>
      <trkpt lat="45.77991" lon="2.98581">
        <ele>929</ele>
        <time>2020-12-22T01:38:03Z</time>
      </trkpt>
      <trkpt lat="45.77922" lon="2.98557">
        <ele>930</ele>
        <time>2020-12-22T01:38:39Z</time>
      </trkpt>
      <trkpt lat="45.77798" lon="2.98487">
        <ele>930</ele>
        <time>2020-12-22T01:39:46Z</time>
      </trkpt>
      <trkpt lat="45.77766" lon="2.98464">
        <ele>930</ele>
        <time>2020-12-22T01:40:03Z</time>
      </trkpt>
      <trkpt lat="45.77699" lon="2.98433">
        <ele>928</ele>
        <time>2020-12-22T01:40:39Z</time>
      </trkpt>
      <trkpt lat="45.77641" lon="2.984">
        <ele>926</ele>
        <time>2020-12-22T01:41:10Z</time>
      </trkpt>
      <trkpt lat="45.77608" lon="2.98364">
        <ele>924</ele>
        <time>2020-12-22T01:41:31Z</time>
      </trkpt>
      <trkpt lat="45.77577" lon="2.98337">
        <ele>923</ele>
        <time>2020-12-22T01:41:49Z</time>
      </trkpt>
      <trkpt lat="45.77477" lon="2.98285">
        <ele>924</ele>
        <time>2020-12-22T01:42:42Z</time>
      </trkpt>
      <trkpt lat="45.77426" lon="2.98261">
        <ele>925</ele>
        <time>2020-12-22T01:43:09Z</time>
      </trkpt>
      <trkpt lat="45.77365" lon="2.98237">
        <ele>925</ele>
        <time>2020-12-22T01:43:41Z</time>
      </trkpt>
      <trkpt lat="45.77305" lon="2.98205">
        <ele>925</ele>
        <time>2020-12-22T01:44:13Z</time>
      </trkpt>
      <trkpt lat="45.77218" lon="2.98152">
        <ele>927</ele>
        <time>2020-12-22T01:45:00Z</time>
      </trkpt>
      <trkpt lat="45.7713" lon="2.98056">
        <ele>935</ele>
        <time>2020-12-22T01:45:55Z</time>
      </trkpt>
      <trkpt lat="45.77071" lon="2.98024">
        <ele>936</ele>
        <time>2020-12-22T01:46:27Z</time>
      </trkpt>
      <trkpt lat="45.77019" lon="2.97988">
        <ele>933</ele>
        <time>2020-12-22T01:46:56Z</time>
      </trkpt>
      <trkpt lat="45.76973" lon="2.9797">
        <ele>933</ele>
        <time>2020-12-22T01:47:20Z</time>
      </trkpt>
      <trkpt lat="45.76931" lon="2.97962">
        <ele>934</ele>
        <time>2020-12-22T01:47:41Z</time>
      </trkpt>
      <trkpt lat="45.769" lon="2.97959">
        <ele>935</ele>
        <time>2020-12-22T01:47:56Z</time>
      </trkpt>
      <trkpt lat="45.76777" lon="2.97923">
        <ele>939</ele>
        <time>2020-12-22T01:48:59Z</time>
      </trkpt>
      <trkpt lat="45.76746" lon="2.97919">
        <ele>940</ele>
        <time>2020-12-22T01:49:15Z</time>
      </trkpt>
      <trkpt lat="45.76659" lon="2.97892">
        <ele>937</ele>
        <time>2020-12-22T01:49:59Z</time>
      </trkpt>
      <trkpt lat="45.76644" lon="2.97885">
        <ele>937</ele>
        <time>2020-12-22T01:50:07Z</time>
      </trkpt>
      <trkpt lat="45.7662" lon="2.97882">
        <ele>936</ele>
        <time>2020-12-22T01:50:19Z</time>
      </trkpt>
      <trkpt lat="45.76576" lon="2.97892">
        <ele>934</ele>
        <time>2020-12-22T01:50:42Z</time>
      </trkpt>
      <trkpt lat="45.76562" lon="2.97886">
        <ele>934</ele>
        <time>2020-12-22T01:50:49Z</time>
      </trkpt>
      <trkpt lat="45.76544" lon="2.97872">
        <ele>934</ele>
        <time>2020-12-22T01:50:59Z</time>
      </trkpt>
      <trkpt lat="45.76492" lon="2.97848">
        <ele>933</ele>
        <time>2020-12-22T01:51:26Z</time>
      </trkpt>
      <trkpt lat="45.7644" lon="2.97808">
        <ele>933</ele>
        <time>2020-12-22T01:51:56Z</time>
      </trkpt>
      <trkpt lat="45.76376" lon="2.97744">
        <ele>932</ele>
        <time>2020-12-22T01:52:35Z</time>
      </trkpt>
      <trkpt lat="45.76237" lon="2.97634">
        <ele>936</ele>
        <time>2020-12-22T01:53:54Z</time>
      </trkpt>
      <trkpt lat="45.76158" lon="2.97593">
        <ele>938</ele>
        <time>2020-12-22T01:54:36Z</time>
      </trkpt>
      <trkpt lat="45.75986" lon="2.97431">
        <ele>947</ele>
        <time>2020-12-22T01:56:19Z</time>
      </trkpt>
      <trkpt lat="45.759" lon="2.97395">
        <ele>949</ele>
        <time>2020-12-22T01:57:04Z</time>
      </trkpt>
      <trkpt lat="45.75754" lon="2.97398">
        <ele>956</ele>
        <time>2020-12-22T01:58:17Z</time>
      </trkpt>
      <trkpt lat="45.75653" lon="2.97383">
        <ele>961</ele>
        <time>2020-12-22T01:59:08Z</time>
      </trkpt>
      <trkpt lat="45.75825" lon="2.96623">
        <ele>972</ele>
        <time>2020-12-22T02:03:47Z</time>
      </trkpt>
      <trkpt lat="45.75842" lon="2.96557">
        <ele>972</ele>
        <time>2020-12-22T02:04:12Z</time>
      </trkpt>
      <trkpt lat="45.75845" lon="2.96516">
        <ele>973</ele>
        <time>2020-12-22T02:04:26Z</time>
      </trkpt>
      <trkpt lat="45.75969" lon="2.9647">
        <ele>977</ele>
        <time>2020-12-22T02:05:30Z</time>
      </trkpt>
      <trkpt lat="45.76006" lon="2.96396">
        <ele>983</ele>
        <time>2020-12-22T02:06:02Z</time>
      </trkpt>
      <trkpt lat="45.76022" lon="2.96344">
        <ele>986</ele>
        <time>2020-12-22T02:06:22Z</time>
      </trkpt>
      <trkpt lat="45.76062" lon="2.96249">
        <ele>993</ele>
        <time>2020-12-22T02:07:01Z</time>
      </trkpt>
      <trkpt lat="45.76077" lon="2.96157">
        <ele>1001</ele>
        <time>2020-12-22T02:07:34Z</time>
      </trkpt>
      <trkpt lat="45.76078" lon="2.96125">
        <ele>1006</ele>
        <time>2020-12-22T02:07:45Z</time>
      </trkpt>
      <trkpt lat="45.76097" lon="2.96048">
        <ele>1020</ele>
        <time>2020-12-22T02:08:13Z</time>
      </trkpt>
      <trkpt lat="45.7608" lon="2.95984">
        <ele>1032</ele>
        <time>2020-12-22T02:08:37Z</time>
      </trkpt>
      <trkpt lat="45.7607" lon="2.95902">
        <ele>1049</ele>
        <time>2020-12-22T02:09:06Z</time>
      </trkpt>
      <trkpt lat="45.76087" lon="2.95841">
        <ele>1059</ele>
        <time>2020-12-22T02:09:29Z</time>
      </trkpt>
      <trkpt lat="45.76134" lon="2.95799">
        <ele>1061</ele>
        <time>2020-12-22T02:09:57Z</time>
      </trkpt>
      <trkpt lat="45.76175" lon="2.95754">
        <ele>1065</ele>
        <time>2020-12-22T02:10:23Z</time>
      </trkpt>
      <trkpt lat="45.76221" lon="2.95741">
        <ele>1064</ele>
        <time>2020-12-22T02:10:46Z</time>
      </trkpt>
      <trkpt lat="45.76277" lon="2.95713">
        <ele>1066</ele>
        <time>2020-12-22T02:11:16Z</time>
      </trkpt>
      <trkpt lat="45.76292" lon="2.95701">
        <ele>1067</ele>
        <time>2020-12-22T02:11:24Z</time>
      </trkpt>
      <trkpt lat="45.76311" lon="2.95669">
        <ele>1070</ele>
        <time>2020-12-22T02:11:39Z</time>
      </trkpt>
      <trkpt lat="45.76337" lon="2.95668">
        <ele>1070</ele>
        <time>2020-12-22T02:11:52Z</time>
      </trkpt>
      <trkpt lat="45.76348" lon="2.95645">
        <ele>1074</ele>
        <time>2020-12-22T02:12:02Z</time>
      </trkpt>
      <trkpt lat="45.76363" lon="2.95636">
        <ele>1076</ele>
        <time>2020-12-22T02:12:10Z</time>
      </trkpt>
      <trkpt lat="45.76407" lon="2.95667">
        <ele>1078</ele>
        <time>2020-12-22T02:12:35Z</time>
      </trkpt>
      <trkpt lat="45.76426" lon="2.95663">
        <ele>1082</ele>
        <time>2020-12-22T02:12:44Z</time>
      </trkpt>
      <trkpt lat="45.76434" lon="2.95643">
        <ele>1084</ele>
        <time>2020-12-22T02:12:52Z</time>
      </trkpt>
      <trkpt lat="45.7643" lon="2.95623">
        <ele>1083</ele>
        <time>2020-12-22T02:12:59Z</time>
      </trkpt>
      <trkpt lat="45.76433" lon="2.95606">
        <ele>1083</ele>
        <time>2020-12-22T02:13:06Z</time>
      </trkpt>
      <trkpt lat="45.76441" lon="2.95593">
        <ele>1085</ele>
        <time>2020-12-22T02:13:12Z</time>
      </trkpt>
      <trkpt lat="45.76444" lon="2.95555">
        <ele>1083</ele>
        <time>2020-12-22T02:13:25Z</time>
      </trkpt>
      <trkpt lat="45.76474" lon="2.9558">
        <ele>1089</ele>
        <time>2020-12-22T02:13:42Z</time>
      </trkpt>
      <trkpt lat="45.76486" lon="2.95598">
        <ele>1092</ele>
        <time>2020-12-22T02:13:51Z</time>
      </trkpt>
      <trkpt lat="45.76492" lon="2.95612">
        <ele>1095</ele>
        <time>2020-12-22T02:13:57Z</time>
      </trkpt>
      <trkpt lat="45.76497" lon="2.95722">
        <ele>1107</ele>
        <time>2020-12-22T02:14:35Z</time>
      </trkpt>
      <trkpt lat="45.76505" lon="2.95758">
        <ele>1111</ele>
        <time>2020-12-22T02:14:48Z</time>
      </trkpt>
      <trkpt lat="45.76514" lon="2.9577">
        <ele>1113</ele>
        <time>2020-12-22T02:14:55Z</time>
      </trkpt>
      <trkpt lat="45.76533" lon="2.95788">
        <ele>1117</ele>
        <time>2020-12-22T02:15:06Z</time>
      </trkpt>
      <trkpt lat="45.76557" lon="2.95787">
        <ele>1123</ele>
        <time>2020-12-22T02:15:18Z</time>
      </trkpt>
      <trkpt lat="45.7657" lon="2.95798">
        <ele>1125</ele>
        <time>2020-12-22T02:15:26Z</time>
      </trkpt>
      <trkpt lat="45.76578" lon="2.95809">
        <ele>1126</ele>
        <time>2020-12-22T02:15:31Z</time>
      </trkpt>
      <trkpt lat="45.76593" lon="2.95818">
        <ele>1129</ele>
        <time>2020-12-22T02:15:39Z</time>
      </trkpt>
      <trkpt lat="45.7662" lon="2.95856">
        <ele>1135</ele>
        <time>2020-12-22T02:15:58Z</time>
      </trkpt>
      <trkpt lat="45.76628" lon="2.9585">
        <ele>1138</ele>
        <time>2020-12-22T02:16:03Z</time>
      </trkpt>
      <trkpt lat="45.76645" lon="2.95803">
        <ele>1141</ele>
        <time>2020-12-22T02:16:21Z</time>
      </trkpt>
      <trkpt lat="45.76645" lon="2.95752">
        <ele>1141</ele>
        <time>2020-12-22T02:16:39Z</time>
      </trkpt>
      <trkpt lat="45.7665" lon="2.95741">
        <ele>1141</ele>
        <time>2020-12-22T02:16:44Z</time>
      </trkpt>
      <trkpt lat="45.76694" lon="2.95746">
        <ele>1149</ele>
        <time>2020-12-22T02:17:06Z</time>
      </trkpt>
      <trkpt lat="45.76703" lon="2.95752">
        <ele>1152</ele>
        <time>2020-12-22T02:17:11Z</time>
      </trkpt>
      <trkpt lat="45.76709" lon="2.95765">
        <ele>1154</ele>
        <time>2020-12-22T02:17:16Z</time>
      </trkpt>
      <trkpt lat="45.76714" lon="2.95795">
        <ele>1158</ele>
        <time>2020-12-22T02:17:27Z</time>
      </trkpt>
      <trkpt lat="45.76721" lon="2.95803">
        <ele>1161</ele>
        <time>2020-12-22T02:17:31Z</time>
      </trkpt>
      <trkpt lat="45.76742" lon="2.95811">
        <ele>1168</ele>
        <time>2020-12-22T02:17:42Z</time>
      </trkpt>
      <trkpt lat="45.76769" lon="2.95791">
        <ele>1173</ele>
        <time>2020-12-22T02:17:57Z</time>
      </trkpt>
      <trkpt lat="45.76776" lon="2.95795">
        <ele>1176</ele>
        <time>2020-12-22T02:18:01Z</time>
      </trkpt>
      <trkpt lat="45.76775" lon="2.95809">
        <ele>1179</ele>
        <time>2020-12-22T02:18:06Z</time>
      </trkpt>
      <trkpt lat="45.76735" lon="2.95929">
        <ele>1187</ele>
        <time>2020-12-22T02:18:53Z</time>
      </trkpt>
      <trkpt lat="45.76736" lon="2.95966">
        <ele>1197</ele>
        <time>2020-12-22T02:19:05Z</time>
      </trkpt>
      <trkpt lat="45.76734" lon="2.95984">
        <ele>1201</ele>
        <time>2020-12-22T02:19:12Z</time>
      </trkpt>
      <trkpt lat="45.76722" lon="2.96025">
        <ele>1202</ele>
        <time>2020-12-22T02:19:27Z</time>
      </trkpt>
      <trkpt lat="45.76723" lon="2.96038">
        <ele>1205</ele>
        <time>2020-12-22T02:19:32Z</time>
      </trkpt>
      <trkpt lat="45.76729" lon="2.96041">
        <ele>1210</ele>
        <time>2020-12-22T02:19:35Z</time>
      </trkpt>
      <trkpt lat="45.76754" lon="2.96002">
        <ele>1218</ele>
        <time>2020-12-22T02:19:54Z</time>
      </trkpt>
      <trkpt lat="45.76779" lon="2.95951">
        <ele>1218</ele>
        <time>2020-12-22T02:20:15Z</time>
      </trkpt>
      <trkpt lat="45.76787" lon="2.95947">
        <ele>1221</ele>
        <time>2020-12-22T02:20:20Z</time>
      </trkpt>
      <trkpt lat="45.76792" lon="2.95951">
        <ele>1226</ele>
        <time>2020-12-22T02:20:22Z</time>
      </trkpt>
      <trkpt lat="45.76768" lon="2.9603">
        <ele>1234</ele>
        <time>2020-12-22T02:20:53Z</time>
      </trkpt>
      <trkpt lat="45.76766" lon="2.96056">
        <ele>1239</ele>
        <time>2020-12-22T02:21:02Z</time>
      </trkpt>
      <trkpt lat="45.76768" lon="2.96063">
        <ele>1242</ele>
        <time>2020-12-22T02:21:04Z</time>
      </trkpt>
      <trkpt lat="45.76778" lon="2.96055">
        <ele>1247</ele>
        <time>2020-12-22T02:21:10Z</time>
      </trkpt>
      <trkpt lat="45.76791" lon="2.96022">
        <ele>1247</ele>
        <time>2020-12-22T02:21:23Z</time>
      </trkpt>
      <trkpt lat="45.76818" lon="2.95982">
        <ele>1252</ele>
        <time>2020-12-22T02:21:43Z</time>
      </trkpt>
      <trkpt lat="45.76855" lon="2.9595">
        <ele>1260</ele>
        <time>2020-12-22T02:22:04Z</time>
      </trkpt>
      <trkpt lat="45.76873" lon="2.9594">
        <ele>1265</ele>
        <time>2020-12-22T02:22:14Z</time>
      </trkpt>
      <trkpt lat="45.76891" lon="2.95936">
        <ele>1272</ele>
        <time>2020-12-22T02:22:23Z</time>
      </trkpt>
      <trkpt lat="45.76895" lon="2.9594">
        <ele>1276</ele>
        <time>2020-12-22T02:22:26Z</time>
      </trkpt>
      <trkpt lat="45.7689" lon="2.95953">
        <ele>1279</ele>
        <time>2020-12-22T02:22:31Z</time>
      </trkpt>
      <trkpt lat="45.76868" lon="2.95975">
        <ele>1277</ele>
        <time>2020-12-22T02:22:44Z</time>
      </trkpt>
      <trkpt lat="45.76867" lon="2.95983">
        <ele>1280</ele>
        <time>2020-12-22T02:22:47Z</time>
      </trkpt>
      <trkpt lat="45.76885" lon="2.95984">
        <ele>1290</ele>
        <time>2020-12-22T02:22:56Z</time>
      </trkpt>
      <trkpt lat="45.76949" lon="2.95934">
        <ele>1302</ele>
        <time>2020-12-22T02:23:32Z</time>
      </trkpt>
      <trkpt lat="45.76955" lon="2.95937">
        <ele>1306</ele>
        <time>2020-12-22T02:23:36Z</time>
      </trkpt>
      <trkpt lat="45.76932" lon="2.96002">
        <ele>1322</ele>
        <time>2020-12-22T02:24:01Z</time>
      </trkpt>
      <trkpt lat="45.76948" lon="2.95982">
        <ele>1322</ele>
        <time>2020-12-22T02:24:12Z</time>
      </trkpt>
      <trkpt lat="45.76952" lon="2.95986">
        <ele>1326</ele>
        <time>2020-12-22T02:24:14Z</time>
      </trkpt>
      <trkpt lat="45.7695" lon="2.95999">
        <ele>1331</ele>
        <time>2020-12-22T02:24:19Z</time>
      </trkpt>
      <trkpt lat="45.76943" lon="2.96009">
        <ele>1331</ele>
        <time>2020-12-22T02:24:24Z</time>
      </trkpt>
      <trkpt lat="45.76937" lon="2.96025">
        <ele>1333</ele>
        <time>2020-12-22T02:24:30Z</time>
      </trkpt>
      <trkpt lat="45.76942" lon="2.96028">
        <ele>1337</ele>
        <time>2020-12-22T02:24:33Z</time>
      </trkpt>
      <trkpt lat="45.76952" lon="2.96022">
        <ele>1340</ele>
        <time>2020-12-22T02:24:38Z</time>
      </trkpt>
      <trkpt lat="45.76961" lon="2.96015">
        <ele>1342</ele>
        <time>2020-12-22T02:24:43Z</time>
      </trkpt>
      <trkpt lat="45.76976" lon="2.95997">
        <ele>1344</ele>
        <time>2020-12-22T02:24:53Z</time>
      </trkpt>
      <trkpt lat="45.76979" lon="2.96011">
        <ele>1350</ele>
        <time>2020-12-22T02:24:58Z</time>
      </trkpt>
      <trkpt lat="45.76972" lon="2.9604">
        <ele>1357</ele>
        <time>2020-12-22T02:25:09Z</time>
      </trkpt>
      <trkpt lat="45.76967" lon="2.96048">
        <ele>1357</ele>
        <time>2020-12-22T02:25:13Z</time>
      </trkpt>
      <trkpt lat="45.7693" lon="2.96086">
        <ele>1352</ele>
        <time>2020-12-22T02:25:35Z</time>
      </trkpt>
      <trkpt lat="45.76928" lon="2.96098">
        <ele>1353</ele>
        <time>2020-12-22T02:25:40Z</time>
      </trkpt>
      <trkpt lat="45.76931" lon="2.96118">
        <ele>1356</ele>
        <time>2020-12-22T02:25:47Z</time>
      </trkpt>
      <trkpt lat="45.7694" lon="2.9612">
        <ele>1361</ele>
        <time>2020-12-22T02:25:51Z</time>
      </trkpt>
      <trkpt lat="45.76973" lon="2.96103">
        <ele>1375</ele>
        <time>2020-12-22T02:26:09Z</time>
      </trkpt>
      <trkpt lat="45.76992" lon="2.96085">
        <ele>1382</ele>
        <time>2020-12-22T02:26:20Z</time>
      </trkpt>
      <trkpt lat="45.77" lon="2.96082">
        <ele>1385</ele>
        <time>2020-12-22T02:26:25Z</time>
      </trkpt>
      <trkpt lat="45.77006" lon="2.96085">
        <ele>1387</ele>
        <time>2020-12-22T02:26:28Z</time>
      </trkpt>
      <trkpt lat="45.77015" lon="2.96101">
        <ele>1392</ele>
        <time>2020-12-22T02:26:35Z</time>
      </trkpt>
      <trkpt lat="45.7702" lon="2.96122">
        <ele>1395</ele>
        <time>2020-12-22T02:26:43Z</time>
      </trkpt>
      <trkpt lat="45.7704" lon="2.96153">
        <ele>1402</ele>
        <time>2020-12-22T02:26:57Z</time>
      </trkpt>
      <trkpt lat="45.77084" lon="2.96204">
        <ele>1411</ele>
        <time>2020-12-22T02:27:26Z</time>
      </trkpt>
      <trkpt lat="45.77084" lon="2.96227">
        <ele>1413</ele>
        <time>2020-12-22T02:27:34Z</time>
      </trkpt>
      <trkpt lat="45.77075" lon="2.96279">
        <ele>1411</ele>
        <time>2020-12-22T02:27:52Z</time>
      </trkpt>
      <trkpt lat="45.77078" lon="2.96306">
        <ele>1411</ele>
        <time>2020-12-22T02:28:02Z</time>
      </trkpt>
      <trkpt lat="45.77137" lon="2.96434">
        <ele>1429</ele>
        <time>2020-12-22T02:28:56Z</time>
      </trkpt>
      <trkpt lat="45.77141" lon="2.9649">
        <ele>1428</ele>
        <time>2020-12-22T02:29:15Z</time>
      </trkpt>
      <trkpt lat="45.77149" lon="2.96505">
        <ele>1429</ele>
        <time>2020-12-22T02:29:22Z</time>
      </trkpt>
      <trkpt lat="45.77221" lon="2.96516">
        <ele>1441</ele>
        <time>2020-12-22T02:29:58Z</time>
      </trkpt>
    </trkseg>
  </trk>
</gpx>